Time;durP1;ratioP1;P1;durP2;ratioP2;P2;SDS_P1;SDS_P2;PMS_P1;PMS_P2;Temp;Humidity;BMP_temperature;BMP_pressure;BME280_temperature;BME280_humidity;BME280_pressure;Samples;Min_cycle;Max_cycle;Signal;HPM_P1;HPM_P2
2021/01/01 00:03:05;;;;;;;93.93;45.10;;;;;;;4.23;100.00;94221.13;10526409;28;20012;-76
2021/01/01 00:08:06;;;;;;;96.90;43.72;;;;;;;4.30;100.00;94222.78;10526471;28;20491;-76
2021/01/01 00:13:06;;;;;;;72.57;37.08;;;;;;;4.38;100.00;94248.97;10523574;28;20102;-76
2021/01/01 00:18:06;;;;;;;96.23;44.43;;;;;;;4.48;100.00;94246.47;10517775;28;20041;-75
2021/01/01 00:23:07;;;;;;;90.63;36.80;;;;;;;4.47;100.00;94247.50;10466773;28;20271;-76
2021/01/01 00:28:07;;;;;;;66.60;31.48;;;;;;;4.59;100.00;94256.19;10483785;28;20027;-76
2021/01/01 00:33:08;;;;;;;67.47;29.63;;;;;;;4.60;100.00;94248.97;10466057;28;20023;-76
2021/01/01 00:38:09;;;;;;;60.70;27.73;;;;;;;4.50;100.00;94268.28;10484182;28;20025;-75
2021/01/01 00:43:09;;;;;;;58.10;26.17;;;;;;;4.51;100.00;94261.94;10483277;28;20024;-76
2021/01/01 00:48:10;;;;;;;54.95;28.05;;;;;;;4.43;100.00;94263.13;10465182;28;20020;-76
2021/01/01 00:53:10;;;;;;;63.08;25.48;;;;;;;4.31;100.00;94272.28;10483084;28;20027;-76
2021/01/01 00:58:10;;;;;;;59.05;27.42;;;;;;;4.35;100.00;94260.91;10483167;28;20223;-76
2021/01/01 01:03:11;;;;;;;57.60;26.13;;;;;;;4.24;100.00;94278.59;10481917;28;20078;-76
2021/01/01 01:08:11;;;;;;;54.93;27.03;;;;;;;4.15;100.00;94279.25;10483464;28;20083;-76
2021/01/01 01:13:11;;;;;;;55.33;24.90;;;;;;;4.14;100.00;94289.06;10465699;28;20274;-76
2021/01/01 01:18:12;;;;;;;48.57;24.03;;;;;;;4.24;100.00;94285.75;10475292;28;20193;-76
2021/01/01 01:23:12;;;;;;;50.43;22.70;;;;;;;4.14;100.00;94290.94;10525929;28;20266;-76
2021/01/01 01:28:13;;;;;;;58.53;22.65;;;;;;;4.17;100.00;94301.09;10525808;28;20328;-76
2021/01/01 01:33:13;;;;;;;55.17;24.65;;;;;;;4.17;100.00;94301.09;10524952;28;20077;-76
2021/01/01 01:38:14;;;;;;;48.58;23.02;;;;;;;4.24;100.00;94291.06;10525438;28;20031;-76
2021/01/01 01:43:14;;;;;;;46.37;20.40;;;;;;;4.28;100.00;94295.69;10525892;28;20383;-75
2021/01/01 01:48:23;;;;;;;46.40;21.20;;;;;;;4.04;100.00;94303.03;10524771;28;20453;-75
2021/01/01 01:53:25;;;;;;;53.65;22.23;;;;;;;4.13;100.00;94305.28;10525662;28;20485;-75
2021/01/01 01:58:25;;;;;;;50.25;22.50;;;;;;;4.12;100.00;94312.47;10524720;28;20115;-76
2021/01/01 02:03:31;;;;;;;47.28;24.27;;;;;;;4.03;100.00;94324.53;10525028;28;20490;-75
2021/01/01 02:08:32;;;;;;;54.72;25.20;;;;;;;3.94;100.00;94316.97;10524942;28;20090;-75
2021/01/01 02:13:34;;;;;;;45.22;21.83;;;;;;;4.02;100.00;94315.78;10507328;28;20032;-75
2021/01/01 02:18:39;;;;;;;45.22;22.63;;;;;;;3.97;100.00;94318.34;10531360;28;20048;-74
2021/01/01 02:23:40;;;;;;;42.63;18.88;;;;;;;4.06;100.00;94316.91;10531894;28;20028;-75
2021/01/01 02:28:40;;;;;;;43.63;18.75;;;;;;;4.13;100.00;94316.75;10531230;28;20032;-75
2021/01/01 02:33:40;;;;;;;45.08;18.45;;;;;;;4.18;100.00;94319.44;10531823;28;20127;-75
2021/01/01 02:38:42;;;;;;;37.37;15.60;;;;;;;4.13;100.00;94321.22;10530601;28;20031;-75
2021/01/01 02:43:42;;;;;;;36.50;16.55;;;;;;;4.12;100.00;94331.06;10530822;28;20285;-75
2021/01/01 02:48:42;;;;;;;42.20;16.73;;;;;;;4.07;100.00;94337.09;10531124;28;20830;-75
2021/01/01 02:53:43;;;;;;;39.10;16.50;;;;;;;3.94;100.00;94340.09;10530536;28;20028;-76
2021/01/01 02:58:43;;;;;;;30.33;15.43;;;;;;;3.90;100.00;94341.63;10530736;28;20024;-75
2021/01/01 03:03:44;;;;;;;29.70;14.40;;;;;;;3.80;100.00;94346.78;10520216;28;20035;-76
2021/01/01 03:08:44;;;;;;;33.17;14.03;;;;;;;3.86;100.00;94338.63;10488564;28;20024;-75
2021/01/01 03:13:44;;;;;;;34.63;13.98;;;;;;;3.74;100.00;94348.53;10487966;28;20028;-76
2021/01/01 03:18:45;;;;;;;34.67;15.43;;;;;;;3.67;100.00;94340.72;10507892;28;20045;-76
2021/01/01 03:23:45;;;;;;;37.00;17.13;;;;;;;3.22;100.00;94352.94;10495886;28;20804;-76
2021/01/01 03:28:45;;;;;;;38.88;14.48;;;;;;;3.27;100.00;94344.25;10528485;28;20469;-76
2021/01/01 03:33:46;;;;;;;40.33;16.23;;;;;;;3.16;100.00;94353.06;10529058;28;20032;-76
2021/01/01 03:38:46;;;;;;;35.53;14.80;;;;;;;3.20;100.00;94352.34;10529193;28;20266;-75
2021/01/01 03:43:46;;;;;;;35.30;15.13;;;;;;;3.34;100.00;94341.44;10528658;28;20766;-75
2021/01/01 03:48:47;;;;;;;29.53;15.87;;;;;;;3.02;100.00;94349.88;10529015;28;20036;-75
2021/01/01 03:53:47;;;;;;;34.65;15.38;;;;;;;3.19;100.00;94344.63;10528489;28;20028;-75
2021/01/01 03:58:48;;;;;;;37.80;14.63;;;;;;;3.02;100.00;94352.53;10528155;28;20039;-75
2021/01/01 04:03:48;;;;;;;30.50;13.70;;;;;;;3.19;100.00;94349.94;10509572;28;20827;-75
2021/01/01 04:08:48;;;;;;;29.05;14.13;;;;;;;3.17;100.00;94362.66;10527501;28;20301;-75
2021/01/01 04:13:49;;;;;;;32.07;15.50;;;;;;;3.07;100.00;94363.25;10527807;28;20024;-75
2021/01/01 04:18:49;;;;;;;30.10;13.97;;;;;;;3.09;100.00;94371.78;10527252;28;20079;-75
2021/01/01 04:23:49;;;;;;;28.53;13.20;;;;;;;3.13;100.00;94378.22;10527434;28;20300;-75
2021/01/01 04:28:50;;;;;;;30.90;13.47;;;;;;;2.94;100.00;94384.75;10527806;28;20034;-75
2021/01/01 04:33:50;;;;;;;27.33;12.65;;;;;;;2.75;100.00;94390.19;10527320;28;20301;-75
2021/01/01 04:38:51;;;;;;;29.90;13.77;;;;;;;2.67;100.00;94380.72;10527100;28;20478;-76
2021/01/01 04:43:51;;;;;;;36.20;13.98;;;;;;;2.74;100.00;94378.75;10526928;28;21057;-75
2021/01/01 04:48:52;;;;;;;35.17;14.75;;;;;;;2.65;100.00;94390.78;10525980;28;20032;-75
2021/01/01 04:53:55;;;;;;;31.35;14.35;;;;;;;2.58;100.00;94390.06;10526635;28;20027;-75
2021/01/01 04:58:56;;;;;;;31.52;13.98;;;;;;;2.56;100.00;94386.84;10526080;28;20020;-75
2021/01/01 05:03:57;;;;;;;33.47;14.70;;;;;;;2.55;100.00;94394.03;10525811;28;20398;-75
2021/01/01 05:09:00;;;;;;;33.53;14.90;;;;;;;2.51;100.00;94411.44;10508051;28;20106;-75
2021/01/01 05:14:03;;;;;;;29.73;13.45;;;;;;;2.46;100.00;94421.13;10526275;28;20040;-75
2021/01/01 05:19:13;;;;;;;33.50;14.32;;;;;;;2.41;100.00;94418.34;10526258;28;20040;-75
2021/01/01 05:24:16;;;;;;;37.58;14.43;;;;;;;2.19;100.00;94424.19;10525279;28;20036;-75
2021/01/01 05:29:21;;;;;;;38.17;16.00;;;;;;;2.02;100.00;94430.16;10489263;28;20024;-75
2021/01/01 05:34:24;;;;;;;28.30;14.23;;;;;;;2.09;100.00;94432.69;10466002;28;20407;-75
2021/01/01 05:39:24;;;;;;;32.30;14.55;;;;;;;2.12;100.00;94447.34;10484573;28;20468;-75
2021/01/01 05:44:30;;;;;;;42.00;18.23;;;;;;;2.13;100.00;94451.63;10484486;28;20028;-75
2021/01/01 05:49:38;;;;;;;36.30;16.60;;;;;;;2.11;100.00;94457.16;10486299;28;20298;-74
2021/01/01 05:54:41;;;;;;;49.50;21.08;;;;;;;2.02;100.00;94458.50;10491492;28;20037;-75
2021/01/01 05:59:45;;;;;;;40.95;17.52;;;;;;;2.04;100.00;94467.03;10491493;28;20028;-74
2021/01/01 06:04:45;;;;;;;37.25;16.67;;;;;;;1.96;100.00;94468.16;10491079;28;20106;-74
2021/01/01 06:09:49;;;;;;;46.20;18.55;;;;;;;1.87;100.00;94472.97;10490699;28;20142;-74
2021/01/01 06:14:59;;;;;;;35.97;17.10;;;;;;;1.79;100.00;94494.50;10490921;28;20036;-74
2021/01/01 06:19:59;;;;;;;43.78;19.65;;;;;;;1.65;100.00;94493.06;10490148;28;20052;-74
2021/01/01 06:25:01;;;;;;;37.60;17.65;;;;;;;1.75;100.00;94497.81;10490309;28;20498;-74
2021/01/01 06:30:09;;;;;;;36.03;17.73;;;;;;;1.87;100.00;94510.09;10489456;28;20036;-74
2021/01/01 06:35:14;;;;;;;33.23;17.77;;;;;;;1.96;100.00;94509.78;10490124;28;20025;-74
2021/01/01 06:40:32;;;;;;;36.58;17.77;;;;;;;2.00;100.00;94513.59;10489770;28;20812;-74
2021/01/01 06:45:39;;;;;;;44.17;18.20;;;;;;;2.01;100.00;94525.78;10489492;28;20028;-74
2021/01/01 06:50:41;;;;;;;39.97;16.92;;;;;;;1.88;100.00;94529.44;10488796;28;20094;-74
2021/01/01 06:55:47;;;;;;;40.50;19.00;;;;;;;1.92;100.00;94532.44;10489329;28;20032;-74
2021/01/01 07:00:47;;;;;;;114.13;26.38;;;;;;;2.06;100.00;94536.53;10488527;28;20454;-74
2021/01/01 07:05:47;;;;;;;34.17;18.33;;;;;;;2.20;100.00;94537.97;10487792;28;20067;-74
2021/01/01 07:10:48;;;;;;;41.88;17.73;;;;;;;2.34;100.00;94549.19;10487903;28;20602;-74
2021/01/01 07:15:48;;;;;;;44.45;21.27;;;;;;;2.51;100.00;94554.69;10487434;28;20029;-74
2021/01/01 07:20:49;;;;;;;45.20;21.17;;;;;;;2.69;100.00;94552.97;10487761;28;20117;-74
2021/01/01 07:25:50;;;;;;;55.63;27.50;;;;;;;2.82;100.00;94554.59;10487039;28;20135;-74
2021/01/01 07:30:51;;;;;;;67.68;30.73;;;;;;;2.96;100.00;94549.88;10487482;28;20746;-74
2021/01/01 07:35:55;;;;;;;67.90;32.15;;;;;;;3.14;100.00;94570.22;10499352;28;20058;-75
2021/01/01 07:40:57;;;;;;;71.80;34.65;;;;;;;3.34;100.00;94568.03;10528169;28;20024;-73
2021/01/01 07:46:04;;;;;;;66.65;31.92;;;;;;;3.46;100.00;94572.50;10510872;28;20082;-73
2021/01/01 07:51:07;;;;;;;62.65;30.65;;;;;;;3.61;100.00;94570.19;10509714;28;20079;-74
2021/01/01 07:56:08;;;;;;;63.15;29.23;;;;;;;3.78;100.00;94569.47;10482712;28;20028;-73
2021/01/01 08:01:10;;;;;;;55.00;27.90;;;;;;;4.02;100.00;94579.00;10462281;28;20032;-73
2021/01/01 08:06:11;;;;;;;48.35;23.17;;;;;;;4.50;100.00;94584.16;10517214;28;20033;-75
2021/01/01 08:11:11;;;;;;;41.37;19.57;;;;;;;5.13;100.00;94595.59;10522446;28;20028;-75
2021/01/01 08:16:11;;;;;;;32.28;13.80;;;;;;;5.79;100.00;94594.94;10522731;28;20286;-76
2021/01/01 08:21:12;;;;;;;28.27;14.97;;;;;;;6.08;100.00;94600.97;10517958;28;20088;-76
2021/01/01 08:26:14;;;;;;;36.42;16.15;;;;;;;6.53;100.00;94584.91;10481421;28;20028;-76
2021/01/01 08:31:18;;;;;;;36.00;15.85;;;;;;;6.70;100.00;94588.31;10482051;28;20059;-76
2021/01/01 08:36:19;;;;;;;40.45;18.55;;;;;;;7.08;100.00;94596.41;10504902;28;20831;-76
2021/01/01 08:41:20;;;;;;;45.85;17.25;;;;;;;8.06;100.00;94599.72;10522301;28;20028;-76
2021/01/01 08:46:21;;;;;;;32.03;16.15;;;;;;;8.79;100.00;94607.78;10517991;28;20085;-77
2021/01/01 08:51:31;;;;;;;29.75;14.15;;;;;;;9.03;96.09;94601.94;10524262;28;20089;-76
2021/01/01 08:56:33;;;;;;;28.58;14.52;;;;;;;9.00;100.00;94611.31;10496668;28;20043;-76
2021/01/01 09:01:34;;;;;;;35.42;14.82;;;;;;;9.21;93.41;94608.66;10504192;28;20467;-76
2021/01/01 09:06:34;;;;;;;31.30;15.55;;;;;;;9.32;93.54;94610.25;10522202;28;20035;-76
2021/01/01 09:11:34;;;;;;;30.40;14.33;;;;;;;9.69;91.67;94609.16;10523869;28;20043;-77
2021/01/01 09:16:35;;;;;;;32.97;14.93;;;;;;;10.39;83.15;94613.84;10523823;28;20278;-76
2021/01/01 09:21:35;;;;;;;28.13;13.60;;;;;;;10.37;85.23;94618.69;10505413;28;20163;-77
2021/01/01 09:26:36;;;;;;;28.70;13.23;;;;;;;10.67;75.87;94610.78;10529441;28;20032;-76
2021/01/01 09:31:38;;;;;;;31.30;12.77;;;;;;;10.41;81.45;94614.38;10532171;28;20027;-76
2021/01/01 09:36:40;;;;;;;25.05;12.10;;;;;;;10.33;73.73;94614.91;10531960;28;20695;-76
2021/01/01 09:41:47;;;;;;;26.88;13.00;;;;;;;9.97;81.23;94612.34;10531428;28;20020;-76
2021/01/01 09:46:48;;;;;;;26.23;12.45;;;;;;;10.57;78.33;94600.88;10551863;28;20027;-76
2021/01/01 09:51:48;;;;;;;36.28;13.65;;;;;;;11.37;70.19;94599.03;10573631;28;20028;-76
2021/01/01 09:56:48;;;;;;;22.47;11.83;;;;;;;12.26;59.89;94596.06;10573934;28;20029;-76
2021/01/01 10:01:49;;;;;;;28.27;12.30;;;;;;;15.26;48.58;94587.22;10573923;28;20031;-76
2021/01/01 10:06:49;;;;;;;17.27;9.80;;;;;;;18.47;40.60;94568.72;10572969;28;20035;-74
2021/01/01 10:11:50;;;;;;;23.35;10.07;;;;;;;20.01;37.25;94567.44;10571141;28;20032;-77
2021/01/01 10:16:50;;;;;;;20.50;8.95;;;;;;;21.40;33.76;94556.59;10571481;28;20110;-75
2021/01/01 10:21:51;;;;;;;16.80;9.05;;;;;;;22.89;31.43;94559.31;10569348;28;20054;-75
2021/01/01 10:26:53;;;;;;;19.02;9.27;;;;;;;23.66;30.66;94544.13;10551419;28;20027;-76
2021/01/01 10:31:54;;;;;;;15.82;8.25;;;;;;;24.95;28.25;94542.09;10562547;28;20028;-76
2021/01/01 10:36:54;;;;;;;17.65;7.95;;;;;;;25.16;27.95;94522.34;10496893;28;20106;-76
2021/01/01 10:41:54;;;;;;;19.37;8.37;;;;;;;25.91;27.25;94527.19;10497782;28;20035;-76
2021/01/01 10:46:55;;;;;;;14.80;8.50;;;;;;;26.26;26.35;94523.25;10511407;28;20040;-75
2021/01/01 10:51:58;;;;;;;17.93;8.17;;;;;;;26.82;25.24;94513.13;10499387;28;20283;-77
2021/01/01 10:56:58;;;;;;;14.77;8.07;;;;;;;26.31;25.32;94511.88;10521662;28;20028;-76
2021/01/01 11:01:59;;;;;;;18.60;9.70;;;;;;;25.08;26.61;94496.69;10510716;28;20032;-76
2021/01/01 11:07:00;;;;;;;15.50;9.88;;;;;;;21.87;30.35;94503.22;10484879;28;20457;-76
2021/01/01 11:12:00;;;;;;;15.23;8.63;;;;;;;21.08;32.08;94511.94;10466064;28;20020;-76
2021/01/01 12:26:18;;;;;;;14.33;6.33;;;;;;;13.72;45.02;94531.66;10516397;28;20431;-76
2021/01/01 12:31:19;;;;;;;14.60;6.47;;;;;;;12.39;49.21;94537.16;10502622;28;20279;-76
2021/01/01 12:36:19;;;;;;;14.85;7.43;;;;;;;11.85;53.17;94537.22;10486296;28;20028;-76
2021/01/01 12:41:19;;;;;;;14.63;6.43;;;;;;;11.43;54.62;94554.88;10487298;28;20100;-76
2021/01/01 12:46:20;;;;;;;12.97;6.50;;;;;;;11.10;56.31;94555.38;10486321;28;20071;-76
2021/01/01 12:51:20;;;;;;;12.35;6.80;;;;;;;10.87;56.81;94553.38;10486632;28;20278;-76
2021/01/01 12:56:21;;;;;;;15.77;6.27;;;;;;;10.44;59.96;94556.63;10487034;28;20035;-77
2021/01/01 13:01:21;;;;;;;14.80;5.90;;;;;;;10.15;61.45;94569.88;10486731;28;20094;-76
2021/01/01 13:06:21;;;;;;;11.60;5.50;;;;;;;9.92;62.21;94566.69;10485983;28;20107;-75
2021/01/01 13:11:22;;;;;;;16.00;7.70;;;;;;;9.90;62.68;94571.56;10486644;28;20035;-76
2021/01/01 13:16:24;;;;;;;14.70;5.65;;;;;;;9.95;62.35;94576.09;10486378;28;20357;-77
2021/01/01 13:21:35;;;;;;;11.52;5.07;;;;;;;10.03;60.58;94579.03;10485716;28;20052;-77
2021/01/01 13:26:35;;;;;;;10.30;4.95;;;;;;;9.67;60.29;94589.03;10483009;28;20025;-76
2021/01/01 13:31:40;;;;;;;8.55;5.43;;;;;;;9.48;58.14;94596.84;10483847;28;20414;-75
2021/01/01 13:36:41;;;;;;;8.73;3.95;;;;;;;9.60;58.58;94589.31;10484607;28;20032;-76
2021/01/01 13:41:41;;;;;;;9.68;4.32;;;;;;;9.68;58.22;94587.97;10484087;28;20032;-76
2021/01/01 13:46:42;;;;;;;10.87;4.33;;;;;;;9.66;59.83;94593.59;10485282;28;20033;-76
2021/01/01 13:51:42;;;;;;;9.97;4.33;;;;;;;9.50;61.22;94589.31;10483687;28;20032;-76
2021/01/01 13:56:42;;;;;;;10.20;4.50;;;;;;;9.53;60.34;94584.22;10482880;28;20102;-76
2021/01/01 14:01:43;;;;;;;13.17;4.63;;;;;;;9.39;60.82;94601.94;10476497;28;20040;-77
2021/01/01 14:06:43;;;;;;;9.23;3.93;;;;;;;9.16;62.44;94597.91;10475677;28;20024;-76
2021/01/01 14:11:50;;;;;;;12.70;5.60;;;;;;;9.08;65.36;94596.56;10459857;28;20024;-77
2021/01/01 14:16:52;;;;;;;15.15;5.20;;;;;;;8.92;67.58;94601.09;10483953;28;20274;-77
2021/01/01 14:21:54;;;;;;;13.05;5.82;;;;;;;8.70;69.80;94612.84;10482077;28;20056;-78
2021/01/01 14:26:54;;;;;;;16.05;6.75;;;;;;;8.51;71.00;94612.53;10482847;28;20695;-76
2021/01/01 14:31:55;;;;;;;14.47;6.07;;;;;;;8.50;71.53;94604.75;10479845;28;20028;-76
2021/01/01 14:36:55;;;;;;;22.48;7.75;;;;;;;8.14;77.26;94607.25;10460622;28;20032;-76
2021/01/01 14:41:56;;;;;;;19.65;8.35;;;;;;;7.89;81.11;94614.09;10479986;28;20050;-76
2021/01/01 14:46:57;;;;;;;19.60;8.93;;;;;;;7.70;82.39;94625.22;10465820;28;20044;-76
2021/01/01 14:51:58;;;;;;;20.33;9.68;;;;;;;7.51;84.39;94624.81;10479471;28;20050;-76
2021/01/01 14:57:00;;;;;;;24.97;9.90;;;;;;;7.35;86.26;94633.75;10479742;28;20209;-77
2021/01/01 15:02:00;;;;;;;29.48;11.43;;;;;;;7.22;86.25;94650.25;10480279;28;20024;-77
2021/01/01 15:07:01;;;;;;;21.42;9.43;;;;;;;7.24;86.22;94645.44;10480247;28;20033;-76
2021/01/01 15:12:01;;;;;;;20.98;10.48;;;;;;;7.13;85.81;94645.34;10472403;28;20042;-76
2021/01/01 15:17:02;;;;;;;22.07;9.40;;;;;;;6.86;88.43;94653.38;10475486;28;20033;-76
2021/01/01 15:22:02;;;;;;;13.47;8.27;;;;;;;6.73;90.03;94657.25;10461098;28;20334;-77
2021/01/01 15:27:02;;;;;;;25.47;9.63;;;;;;;6.59;92.99;94661.38;10466667;28;20294;-77
2021/01/01 15:32:03;;;;;;;25.83;9.30;;;;;;;6.57;92.82;94660.78;10460189;28;20278;-77
2021/01/01 15:37:04;;;;;;;26.27;9.32;;;;;;;6.39;93.41;94662.75;10456386;28;20754;-77
2021/01/01 15:42:04;;;;;;;24.30;8.93;;;;;;;6.39;96.05;94661.91;10465886;28;20502;-76
2021/01/01 15:47:04;;;;;;;30.45;9.70;;;;;;;6.14;98.01;94671.22;10449047;28;20036;-76
2021/01/01 15:52:05;;;;;;;22.77;9.50;;;;;;;5.80;98.39;94679.25;10479655;28;20093;-76
2021/01/01 15:57:05;;;;;;;23.97;9.83;;;;;;;5.64;97.69;94695.00;10453174;28;20783;-76
2021/01/01 16:02:06;;;;;;;18.95;8.45;;;;;;;5.64;97.55;94695.00;10470894;28;20060;-76
2021/01/01 16:07:06;;;;;;;28.90;10.50;;;;;;;5.66;99.43;94697.44;10484721;28;20032;-76
2021/01/01 16:12:07;;;;;;;24.92;10.75;;;;;;;5.44;100.00;94700.84;10459191;28;20024;-75
2021/01/01 16:17:07;;;;;;;25.75;11.38;;;;;;;5.30;100.00;94700.34;10447479;28;20021;-75
2021/01/01 16:22:08;;;;;;;29.38;12.75;;;;;;;5.19;100.00;94701.22;10444616;28;20057;-74
2021/01/01 16:27:08;;;;;;;29.43;12.47;;;;;;;5.13;100.00;94702.16;10466238;28;20124;-75
2021/01/01 16:32:09;;;;;;;25.95;12.07;;;;;;;5.05;100.00;94706.03;10470275;28;20028;-75
2021/01/01 16:37:09;;;;;;;26.80;14.90;;;;;;;4.90;100.00;94717.22;10469936;28;20033;-75
2021/01/01 16:42:11;;;;;;;27.67;12.60;;;;;;;4.97;100.00;94725.84;10477803;28;20068;-83
2021/01/01 16:47:11;;;;;;;29.17;13.75;;;;;;;4.73;100.00;94738.47;10486023;28;20039;-75
2021/01/01 16:52:12;;;;;;;35.13;14.60;;;;;;;4.68;100.00;94745.53;10475614;28;20039;-78
2021/01/01 16:57:12;;;;;;;38.25;17.17;;;;;;;4.66;100.00;94734.28;10470897;28;20028;-76
2021/01/01 17:02:13;;;;;;;31.75;15.40;;;;;;;4.76;98.44;94732.66;10446712;28;20764;-77
2021/01/01 17:07:13;;;;;;;48.78;17.75;;;;;;;4.88;96.98;94735.25;10462265;28;20036;-77
2021/01/01 17:12:13;;;;;;;44.60;19.27;;;;;;;4.85;93.72;94748.25;10453917;28;20025;-77
2021/01/01 17:17:14;;;;;;;38.37;20.00;;;;;;;4.78;94.80;94757.16;10444548;28;20037;-77
2021/01/01 17:22:15;;;;;;;49.92;20.83;;;;;;;4.69;97.28;94755.13;10444231;28;20111;-78
2021/01/01 17:27:15;;;;;;;42.22;18.17;;;;;;;4.54;94.78;94758.28;10445975;28;20039;-77
2021/01/01 17:32:15;;;;;;;40.63;18.57;;;;;;;4.54;94.38;94771.59;10444463;28;20036;-77
2021/01/01 17:37:16;;;;;;;41.73;16.77;;;;;;;4.45;96.54;94768.47;10449228;28;20278;-88
2021/01/01 17:42:16;;;;;;;42.85;16.05;;;;;;;4.37;97.07;94776.84;10477510;28;20020;-75
2021/01/01 17:47:17;;;;;;;36.87;16.57;;;;;;;4.43;97.99;94778.56;10484020;28;20032;-75
2021/01/01 17:52:17;;;;;;;42.33;20.47;;;;;;;4.38;100.00;94797.06;10485560;28;20381;-74
2021/01/01 17:57:18;;;;;;;45.43;17.17;;;;;;;4.18;100.00;94792.09;10485261;28;20275;-74
2021/01/01 18:02:18;;;;;;;46.63;20.10;;;;;;;4.18;100.00;94794.75;10483278;28;20048;-74
2021/01/01 18:07:18;;;;;;;39.17;17.50;;;;;;;3.93;100.00;94806.41;10483513;28;20033;-76
2021/01/01 18:12:19;;;;;;;42.30;20.47;;;;;;;3.86;100.00;94811.03;10483063;28;20291;-75
2021/01/01 18:17:19;;;;;;;46.35;18.38;;;;;;;3.90;100.00;94809.53;10474121;28;20348;-76
2021/01/01 18:22:20;;;;;;;43.40;18.80;;;;;;;3.65;100.00;94807.88;10483291;28;20553;-74
2021/01/01 18:27:20;;;;;;;49.72;20.42;;;;;;;3.69;100.00;94818.88;10483470;28;20055;-76
2021/01/01 18:32:27;;;;;;;51.38;23.13;;;;;;;3.60;100.00;94829.03;10483153;28;20056;-75
2021/01/01 18:37:31;;;;;;;48.72;22.60;;;;;;;3.34;100.00;94823.03;10480141;28;20055;-74
2021/01/01 18:42:33;;;;;;;48.60;23.60;;;;;;;3.20;100.00;94837.53;10480000;28;20135;-74
2021/01/01 18:47:34;;;;;;;39.70;17.70;;;;;;;3.06;100.00;94842.19;10483541;28;20044;-74
2021/01/01 18:52:34;;;;;;;33.70;16.15;;;;;;;3.08;100.00;94843.59;10481496;28;20396;-75
2021/01/01 18:57:41;;;;;;;32.53;15.40;;;;;;;2.96;100.00;94848.03;10479811;28;20473;-74
2021/01/01 19:02:44;;;;;;;32.70;15.85;;;;;;;2.83;100.00;94861.44;10477881;28;20021;-76
2021/01/01 19:07:50;;;;;;;33.97;16.02;;;;;;;3.00;100.00;94864.31;10500874;28;20123;-76
2021/01/01 19:12:56;;;;;;;33.85;16.45;;;;;;;2.95;100.00;94865.00;10475822;28;20035;-75
2021/01/01 19:18:06;;;;;;;28.45;14.88;;;;;;;3.02;100.00;94865.72;10487812;28;20056;-76
2021/01/01 19:23:19;;;;;;;33.33;15.75;;;;;;;3.05;100.00;94873.22;10476725;28;20027;-77
2021/01/01 19:28:20;;;;;;;39.35;18.92;;;;;;;2.76;100.00;94872.13;10477950;28;20044;-76
2021/01/01 19:33:26;;;;;;;29.77;14.73;;;;;;;2.83;100.00;94888.00;10480825;28;20489;-76
2021/01/01 19:38:30;;;;;;;35.30;16.63;;;;;;;2.74;100.00;94892.78;10481134;28;20498;-74
2021/01/01 19:43:36;;;;;;;35.67;17.17;;;;;;;2.80;100.00;94889.22;10488779;28;20032;-77
2021/01/01 19:49:10;;;;;;;35.47;15.55;;;;;;;2.96;100.00;94881.72;10479127;28;20042;-76
2021/01/01 19:54:43;;;;;;;31.10;12.77;;;;;;;2.96;100.00;94884.38;10486178;28;20028;-76
2021/01/01 19:59:50;;;;;;;38.08;15.32;;;;;;;2.94;100.00;94886.44;10487164;28;20028;-77
2021/01/01 20:04:55;;;;;;;24.05;11.60;;;;;;;2.87;100.00;94886.50;10493670;28;20029;-77
2021/01/01 20:10:04;;;;;;;46.10;16.85;;;;;;;2.81;100.00;94898.03;10488102;28;20029;-76
2021/01/01 20:15:05;;;;;;;30.17;15.25;;;;;;;2.75;100.00;94907.69;10502351;28;20024;-77
2021/01/01 20:20:10;;;;;;;19.80;10.25;;;;;;;2.90;100.00;94905.47;10489731;28;20056;-77
2021/01/01 20:25:14;;;;;;;15.23;6.97;;;;;;;3.02;100.00;94916.16;10484875;28;20040;-77
2021/01/01 20:30:24;;;;;;;17.27;8.50;;;;;;;3.03;100.00;94917.00;10484479;28;20056;-76
2021/01/01 20:35:35;;;;;;;19.38;9.32;;;;;;;2.98;100.00;94912.31;10464209;28;20036;-77
2021/01/01 20:40:43;;;;;;;29.30;13.50;;;;;;;2.80;100.00;94925.59;10486833;28;20029;-77
2021/01/01 21:01:58;;;;;;;20.02;8.25;;;;;;;2.48;100.00;94944.25;10478759;28;20029;-77
2021/01/01 21:07:24;;;;;;;24.27;8.50;;;;;;;2.30;100.00;94956.44;10467204;28;20021;-76
2021/01/01 21:12:42;;;;;;;15.60;6.97;;;;;;;2.20;100.00;94940.19;10459838;28;20650;-76
2021/01/01 21:18:21;;;;;;;14.82;6.85;;;;;;;2.08;100.00;94945.38;10477767;28;20147;-76
2021/01/01 21:23:46;;;;;;;17.95;8.30;;;;;;;1.99;100.00;94962.56;10527579;28;20055;-76
2021/01/01 21:29:01;;;;;;;23.48;10.43;;;;;;;1.92;100.00;94972.38;10525032;28;20043;-76
2021/01/01 21:34:20;;;;;;;18.77;9.10;;;;;;;1.83;100.00;94972.63;10486757;28;20879;-76
2021/01/01 21:39:35;;;;;;;17.08;7.35;;;;;;;1.92;100.00;94965.25;10495337;28;20094;-77
2021/01/01 21:45:00;;;;;;;15.68;6.80;;;;;;;2.02;100.00;94968.25;10520381;28;20031;-75
2021/01/01 21:50:05;;;;;;;15.98;6.53;;;;;;;1.94;100.00;94965.03;10496151;28;20468;-76
2021/01/01 21:55:06;;;;;;;10.48;6.68;;;;;;;1.80;100.00;94970.41;10484359;28;20787;-76
2021/01/01 22:00:07;;;;;;;16.25;7.95;;;;;;;1.73;100.00;94977.59;10527379;28;20024;-76
2021/01/01 22:05:10;;;;;;;18.65;7.88;;;;;;;1.59;100.00;94979.50;10525183;28;20645;-77
2021/01/01 22:10:11;;;;;;;14.60;6.68;;;;;;;1.65;100.00;94976.00;10508246;28;20031;-76
2021/01/01 22:15:12;;;;;;;13.48;6.85;;;;;;;1.76;100.00;94995.72;10532249;28;20028;-76
2021/01/01 22:20:12;;;;;;;21.80;7.40;;;;;;;1.75;100.00;94994.06;10550269;28;20086;-76
2021/01/01 22:25:13;;;;;;;15.82;7.68;;;;;;;1.69;100.00;94995.75;10543281;28;20418;-76
2021/01/01 22:30:14;;;;;;;15.52;7.90;;;;;;;1.59;100.00;94998.03;10527740;28;20501;-76
2021/01/01 22:35:14;;;;;;;19.35;9.82;;;;;;;1.33;100.00;94998.94;10568767;28;20031;-76
2021/01/01 22:40:14;;;;;;;22.95;10.63;;;;;;;1.31;100.00;94995.66;10552780;28;20086;-76
2021/01/01 22:45:15;;;;;;;10.15;6.30;;;;;;;1.39;100.00;95008.69;10527178;28;20061;-76
2021/01/01 22:50:15;;;;;;;14.98;7.53;;;;;;;1.50;100.00;95007.22;10534868;28;20064;-84
2021/01/01 22:55:16;;;;;;;14.80;6.90;;;;;;;1.43;100.00;95007.25;10537627;28;20024;-84
2021/01/01 23:00:27;;;;;;;13.47;7.10;;;;;;;1.45;100.00;95007.88;10519293;28;20277;-84
2021/01/01 23:05:30;;;;;;;13.05;6.57;;;;;;;1.37;100.00;95013.38;10519261;28;20027;-84
2021/01/01 23:10:32;;;;;;;16.42;7.63;;;;;;;1.35;100.00;95018.91;10536968;28;20024;-83
2021/01/01 23:15:38;;;;;;;15.15;7.93;;;;;;;1.17;100.00;95029.31;10504475;28;20060;-83
2021/01/01 23:20:45;;;;;;;9.43;6.20;;;;;;;1.17;100.00;95037.25;10536940;28;20084;-82
2021/01/01 23:26:03;;;;;;;15.48;7.53;;;;;;;1.09;100.00;95035.66;10536677;28;20059;-83
2021/01/01 23:31:28;;;;;;;13.70;7.57;;;;;;;1.05;100.00;95034.44;10518408;28;20020;-83
2021/01/01 23:36:34;;;;;;;20.85;6.65;;;;;;;1.05;100.00;95037.09;10536322;28;20867;-83
2021/01/01 23:41:38;;;;;;;14.75;7.75;;;;;;;1.12;100.00;95040.53;10536114;28;20082;-82
2021/01/01 23:47:01;;;;;;;13.35;8.15;;;;;;;0.94;100.00;95041.16;10536498;28;20024;-82
2021/01/01 23:52:03;;;;;;;18.45;8.60;;;;;;;0.89;100.00;95048.88;10535532;28;20383;-82
2021/01/01 23:57:04;;;;;;;16.15;7.68;;;;;;;0.80;100.00;95050.94;10536271;28;20114;-82
